sensor_id;sensor_type;location;lat;lon;timestamp;temperature;humidity
54516;DHT22;40422;45.892;4.738;2022-12-08T04:03:15;3.50;99.90
54516;DHT22;40422;45.892;4.738;2022-12-08T04:05:40;3.60;99.90
54516;DHT22;40422;45.892;4.738;2022-12-08T04:08:06;3.60;99.90
54516;DHT22;40422;45.892;4.738;2022-12-08T04:10:32;3.60;99.90
54516;DHT22;40422;45.892;4.738;2022-12-08T04:12:57;3.60;99.90
54516;DHT22;40422;45.892;4.738;2022-12-08T04:15:23;3.60;99.90
54516;DHT22;40422;45.892;4.738;2022-12-08T04:17:48;3.60;99.90
54516;DHT22;40422;45.892;4.738;2022-12-08T04:20:14;3.60;99.90
54516;DHT22;40422;45.892;4.738;2022-12-08T04:22:39;3.60;99.90
54516;DHT22;40422;45.892;4.738;2022-12-08T04:25:05;3.60;99.90
54516;DHT22;40422;45.892;4.738;2022-12-08T04:27:31;3.60;99.90
54516;DHT22;40422;45.892;4.738;2022-12-08T04:29:57;3.50;99.90
54516;DHT22;40422;45.892;4.738;2022-12-08T04:32:22;3.50;99.90
54516;DHT22;40422;45.892;4.738;2022-12-08T04:34:48;3.50;99.90
54516;DHT22;40422;45.892;4.738;2022-12-08T04:37:13;3.50;99.90
54516;DHT22;40422;45.892;4.738;2022-12-08T04:39:39;3.50;99.90
54516;DHT22;40422;45.892;4.738;2022-12-08T04:42:05;3.60;99.90
54516;DHT22;40422;45.892;4.738;2022-12-08T04:44:30;3.60;99.90
54516;DHT22;40422;45.892;4.738;2022-12-08T04:46:56;3.60;99.90
54516;DHT22;40422;45.892;4.738;2022-12-08T04:49:21;3.60;99.90
54516;DHT22;40422;45.892;4.738;2022-12-08T04:51:48;3.60;99.90
54516;DHT22;40422;45.892;4.738;2022-12-08T04:54:13;3.50;99.90
54516;DHT22;40422;45.892;4.738;2022-12-08T04:56:39;3.40;99.90
54516;DHT22;40422;45.892;4.738;2022-12-08T04:59:04;3.40;99.90
54516;DHT22;40422;45.892;4.738;2022-12-08T05:01:30;3.40;99.90
54516;DHT22;40422;45.892;4.738;2022-12-08T05:03:56;3.40;99.90
54516;DHT22;40422;45.892;4.738;2022-12-08T05:06:21;3.40;99.90
54516;DHT22;40422;45.892;4.738;2022-12-08T05:08:47;3.30;99.90
54516;DHT22;40422;45.892;4.738;2022-12-08T05:11:13;3.40;99.90
54516;DHT22;40422;45.892;4.738;2022-12-08T05:13:39;3.40;99.90
54516;DHT22;40422;45.892;4.738;2022-12-08T05:16:11;3.40;99.90
54516;DHT22;40422;45.892;4.738;2022-12-08T05:18:38;3.40;99.90
54516;DHT22;40422;45.892;4.738;2022-12-08T05:21:05;3.50;99.90
54516;DHT22;40422;45.892;4.738;2022-12-08T05:23:31;3.40;99.90
54516;DHT22;40422;45.892;4.738;2022-12-08T05:25:56;3.40;99.90
54516;DHT22;40422;45.892;4.738;2022-12-08T05:28:23;3.40;99.90
54516;DHT22;40422;45.892;4.738;2022-12-08T05:30:48;3.40;99.90
54516;DHT22;40422;45.892;4.738;2022-12-08T05:33:14;3.40;99.90
54516;DHT22;40422;45.892;4.738;2022-12-08T05:35:40;3.40;99.90
54516;DHT22;40422;45.892;4.738;2022-12-08T05:38:06;3.50;99.90
54516;DHT22;40422;45.892;4.738;2022-12-08T05:40:32;3.50;99.90
54516;DHT22;40422;45.892;4.738;2022-12-08T05:42:58;3.50;99.90
54516;DHT22;40422;45.892;4.738;2022-12-08T05:45:24;3.50;99.90
54516;DHT22;40422;45.892;4.738;2022-12-08T05:47:51;3.40;99.90
54516;DHT22;40422;45.892;4.738;2022-12-08T05:50:17;3.40;99.90
54516;DHT22;40422;45.892;4.738;2022-12-08T05:52:42;3.30;99.90
54516;DHT22;40422;45.892;4.738;2022-12-08T05:55:08;3.30;99.90
54516;DHT22;40422;45.892;4.738;2022-12-08T05:57:34;3.30;99.90
54516;DHT22;40422;45.892;4.738;2022-12-08T06:00:00;3.30;99.90
54516;DHT22;40422;45.892;4.738;2022-12-08T06:02:26;3.30;99.90
54516;DHT22;40422;45.892;4.738;2022-12-08T06:04:52;3.30;99.90
54516;DHT22;40422;45.892;4.738;2022-12-08T06:07:18;3.40;99.90
54516;DHT22;40422;45.892;4.738;2022-12-08T06:09:43;3.40;99.90
54516;DHT22;40422;45.892;4.738;2022-12-08T06:12:09;3.40;99.90
54516;DHT22;40422;45.892;4.738;2022-12-08T06:14:38;3.40;99.90
54516;DHT22;40422;45.892;4.738;2022-12-08T06:17:04;3.40;99.90
54516;DHT22;40422;45.892;4.738;2022-12-08T06:19:29;3.30;99.90
54516;DHT22;40422;45.892;4.738;2022-12-08T06:21:55;3.30;99.90
54516;DHT22;40422;45.892;4.738;2022-12-08T06:24:21;3.30;99.90
54516;DHT22;40422;45.892;4.738;2022-12-08T06:26:46;3.30;99.90
54516;DHT22;40422;45.892;4.738;2022-12-08T06:29:12;3.30;99.90
54516;DHT22;40422;45.892;4.738;2022-12-08T06:31:38;3.40;99.90
54516;DHT22;40422;45.892;4.738;2022-12-08T06:34:04;3.30;99.90
54516;DHT22;40422;45.892;4.738;2022-12-08T06:36:31;3.40;99.90
54516;DHT22;40422;45.892;4.738;2022-12-08T06:38:56;3.40;99.90
54516;DHT22;40422;45.892;4.738;2022-12-08T06:41:23;3.40;99.90
54516;DHT22;40422;45.892;4.738;2022-12-08T06:43:50;3.30;99.90
54516;DHT22;40422;45.892;4.738;2022-12-08T06:46:18;3.30;99.90
54516;DHT22;40422;45.892;4.738;2022-12-08T06:48:44;3.20;99.90
54516;DHT22;40422;45.892;4.738;2022-12-08T06:51:16;3.20;99.90
54516;DHT22;40422;45.892;4.738;2022-12-08T06:53:42;3.20;99.90
54516;DHT22;40422;45.892;4.738;2022-12-08T06:56:09;3.20;99.90
54516;DHT22;40422;45.892;4.738;2022-12-08T06:58:35;3.20;99.90
54516;DHT22;40422;45.892;4.738;2022-12-08T07:01:08;3.20;99.90
54516;DHT22;40422;45.892;4.738;2022-12-08T07:03:35;3.00;99.90
54516;DHT22;40422;45.892;4.738;2022-12-08T07:06:00;3.00;99.90
54516;DHT22;40422;45.892;4.738;2022-12-08T07:08:26;2.90;99.90
54516;DHT22;40422;45.892;4.738;2022-12-08T07:10:52;3.00;99.90
54516;DHT22;40422;45.892;4.738;2022-12-08T07:13:17;3.00;99.90
54516;DHT22;40422;45.892;4.738;2022-12-08T07:15:43;3.00;99.90
54516;DHT22;40422;45.892;4.738;2022-12-08T07:18:08;3.00;99.90
54516;DHT22;40422;45.892;4.738;2022-12-08T07:20:34;3.10;99.90
54516;DHT22;40422;45.892;4.738;2022-12-08T07:23:00;3.10;99.90
54516;DHT22;40422;45.892;4.738;2022-12-08T07:25:26;3.10;99.90
54516;DHT22;40422;45.892;4.738;2022-12-08T07:27:51;3.10;99.90
54516;DHT22;40422;45.892;4.738;2022-12-08T07:30:18;3.10;99.90
54516;DHT22;40422;45.892;4.738;2022-12-08T07:32:44;3.10;99.90
54516;DHT22;40422;45.892;4.738;2022-12-08T07:35:09;3.10;99.90
54516;DHT22;40422;45.892;4.738;2022-12-08T07:37:36;3.10;99.90
54516;DHT22;40422;45.892;4.738;2022-12-08T07:40:03;3.10;99.90
54516;DHT22;40422;45.892;4.738;2022-12-08T07:42:29;3.10;99.90
54516;DHT22;40422;45.892;4.738;2022-12-08T07:44:54;3.10;99.90
54516;DHT22;40422;45.892;4.738;2022-12-08T07:47:20;3.10;99.90
54516;DHT22;40422;45.892;4.738;2022-12-08T07:49:45;3.10;99.90
54516;DHT22;40422;45.892;4.738;2022-12-08T07:52:11;3.20;99.90
54516;DHT22;40422;45.892;4.738;2022-12-08T07:54:37;3.60;99.90
54516;DHT22;40422;45.892;4.738;2022-12-08T07:57:02;3.90;99.90
54516;DHT22;40422;45.892;4.738;2022-12-08T07:59:30;4.20;99.90
54516;DHT22;40422;45.892;4.738;2022-12-08T08:01:57;4.20;99.90
54516;DHT22;40422;45.892;4.738;2022-12-08T08:04:22;4.10;99.90
54516;DHT22;40422;45.892;4.738;2022-12-08T08:06:48;4.00;99.90
54516;DHT22;40422;45.892;4.738;2022-12-08T08:09:13;4.00;99.90
54516;DHT22;40422;45.892;4.738;2022-12-08T08:11:39;3.90;99.90
54516;DHT22;40422;45.892;4.738;2022-12-08T08:14:05;3.80;99.90
54516;DHT22;40422;45.892;4.738;2022-12-08T08:16:30;3.70;99.90
54516;DHT22;40422;45.892;4.738;2022-12-08T08:18:57;3.60;99.90
54516;DHT22;40422;45.892;4.738;2022-12-08T08:21:23;3.50;99.90
54516;DHT22;40422;45.892;4.738;2022-12-08T08:23:48;3.50;99.90
54516;DHT22;40422;45.892;4.738;2022-12-08T08:26:14;3.50;99.90
54516;DHT22;40422;45.892;4.738;2022-12-08T08:28:40;3.50;99.90
54516;DHT22;40422;45.892;4.738;2022-12-08T08:31:05;3.40;99.90
54516;DHT22;40422;45.892;4.738;2022-12-08T08:33:31;3.60;99.90
54516;DHT22;40422;45.892;4.738;2022-12-08T08:35:57;3.90;99.90
54516;DHT22;40422;45.892;4.738;2022-12-08T08:38:23;4.10;99.90
54516;DHT22;40422;45.892;4.738;2022-12-08T08:40:49;4.20;99.90
54516;DHT22;40422;45.892;4.738;2022-12-08T08:43:15;4.20;99.90
54516;DHT22;40422;45.892;4.738;2022-12-08T08:46:02;4.10;99.90
54516;DHT22;40422;45.892;4.738;2022-12-08T08:48:29;3.90;99.90
54516;DHT22;40422;45.892;4.738;2022-12-08T08:50:55;3.80;99.90
54516;DHT22;40422;45.892;4.738;2022-12-08T08:53:21;3.70;99.90
54516;DHT22;40422;45.892;4.738;2022-12-08T08:55:48;3.70;99.90
54516;DHT22;40422;45.892;4.738;2022-12-08T08:58:14;3.70;99.90
54516;DHT22;40422;45.892;4.738;2022-12-08T09:00:40;3.60;99.90
54516;DHT22;40422;45.892;4.738;2022-12-08T09:03:05;3.60;99.90
54516;DHT22;40422;45.892;4.738;2022-12-08T09:05:31;3.60;99.90
54516;DHT22;40422;45.892;4.738;2022-12-08T09:07:57;3.60;99.90
54516;DHT22;40422;45.892;4.738;2022-12-08T09:10:22;3.60;99.90
54516;DHT22;40422;45.892;4.738;2022-12-08T09:12:48;3.60;99.90
54516;DHT22;40422;45.892;4.738;2022-12-08T09:15:14;3.60;99.90
54516;DHT22;40422;45.892;4.738;2022-12-08T09:17:39;3.60;99.90
54516;DHT22;40422;45.892;4.738;2022-12-08T09:20:06;3.70;99.90
54516;DHT22;40422;45.892;4.738;2022-12-08T09:22:32;3.70;99.90
54516;DHT22;40422;45.892;4.738;2022-12-08T09:24:57;3.70;99.90
54516;DHT22;40422;45.892;4.738;2022-12-08T09:27:23;3.70;99.90
54516;DHT22;40422;45.892;4.738;2022-12-08T09:29:48;3.80;99.90
54516;DHT22;40422;45.892;4.738;2022-12-08T09:32:14;3.70;99.90
54516;DHT22;40422;45.892;4.738;2022-12-08T09:34:40;3.70;99.90
54516;DHT22;40422;45.892;4.738;2022-12-08T09:37:05;3.80;99.90
54516;DHT22;40422;45.892;4.738;2022-12-08T09:39:31;3.80;99.90
54516;DHT22;40422;45.892;4.738;2022-12-08T09:42:04;3.90;99.90
54516;DHT22;40422;45.892;4.738;2022-12-08T09:44:48;4.10;99.90
54516;DHT22;40422;45.892;4.738;2022-12-08T09:49:55;4.60;99.90
54516;DHT22;40422;45.892;4.738;2022-12-08T09:52:27;4.70;99.90
54516;DHT22;40422;45.892;4.738;2022-12-08T09:54:58;4.70;99.90
54516;DHT22;40422;45.892;4.738;2022-12-08T09:57:25;4.60;99.90
54516;DHT22;40422;45.892;4.738;2022-12-08T09:59:56;4.60;99.90
54516;DHT22;40422;45.892;4.738;2022-12-08T10:02:24;4.60;99.90
54516;DHT22;40422;45.892;4.738;2022-12-08T10:04:54;4.70;99.90
54516;DHT22;40422;45.892;4.738;2022-12-08T10:07:38;4.70;99.90
54516;DHT22;40422;45.892;4.738;2022-12-08T10:12:52;4.80;99.90
54516;DHT22;40422;45.892;4.738;2022-12-08T10:17:54;4.90;99.90
54516;DHT22;40422;45.892;4.738;2022-12-08T10:20:25;5.20;99.90
54516;DHT22;40422;45.892;4.738;2022-12-08T10:23:14;5.40;99.90
54516;DHT22;40422;45.892;4.738;2022-12-08T10:25:48;5.50;99.90
54516;DHT22;40422;45.892;4.738;2022-12-08T10:28:15;5.40;99.90
54516;DHT22;40422;45.892;4.738;2022-12-08T10:30:41;5.40;99.90
54516;DHT22;40422;45.892;4.738;2022-12-08T10:33:15;5.30;99.90
54516;DHT22;40422;45.892;4.738;2022-12-08T10:35:52;5.30;99.90
54516;DHT22;40422;45.892;4.738;2022-12-08T10:38:22;5.30;99.90
54516;DHT22;40422;45.892;4.738;2022-12-08T10:40:53;5.30;99.90
54516;DHT22;40422;45.892;4.738;2022-12-08T10:43:26;5.40;99.90
54516;DHT22;40422;45.892;4.738;2022-12-08T10:45:52;5.50;99.90
54516;DHT22;40422;45.892;4.738;2022-12-08T10:48:25;5.50;99.90
54516;DHT22;40422;45.892;4.738;2022-12-08T11:00:58;5.50;99.90
54516;DHT22;40422;45.892;4.738;2022-12-08T11:03:29;5.70;99.90
54516;DHT22;40422;45.892;4.738;2022-12-08T11:05:58;5.80;99.90
54516;DHT22;40422;45.892;4.738;2022-12-08T11:08:25;5.70;99.90
54516;DHT22;40422;45.892;4.738;2022-12-08T11:10:51;5.70;99.90
54516;DHT22;40422;45.892;4.738;2022-12-08T11:13:25;5.70;99.90
54516;DHT22;40422;45.892;4.738;2022-12-08T11:15:54;5.70;99.90
54516;DHT22;40422;45.892;4.738;2022-12-08T11:18:27;5.70;99.90
54516;DHT22;40422;45.892;4.738;2022-12-08T11:20:59;5.70;99.90
54516;DHT22;40422;45.892;4.738;2022-12-08T11:23:27;5.70;99.90
54516;DHT22;40422;45.892;4.738;2022-12-08T11:25:56;5.80;99.90
54516;DHT22;40422;45.892;4.738;2022-12-08T11:28:23;5.70;99.90
54516;DHT22;40422;45.892;4.738;2022-12-08T11:30:59;5.60;99.90
54516;DHT22;40422;45.892;4.738;2022-12-08T11:33:27;5.60;99.90
54516;DHT22;40422;45.892;4.738;2022-12-08T11:36:01;5.60;99.90
54516;DHT22;40422;45.892;4.738;2022-12-08T11:38:28;5.60;99.90
54516;DHT22;40422;45.892;4.738;2022-12-08T11:43:43;5.50;99.90
54516;DHT22;40422;45.892;4.738;2022-12-08T11:46:18;5.40;99.90
54516;DHT22;40422;45.892;4.738;2022-12-08T11:48:56;5.20;99.90
54516;DHT22;40422;45.892;4.738;2022-12-08T11:51:52;5.20;99.90
54516;DHT22;40422;45.892;4.738;2022-12-08T11:54:32;5.10;99.90
54516;DHT22;40422;45.892;4.738;2022-12-08T11:57:05;5.10;99.90
54516;DHT22;40422;45.892;4.738;2022-12-08T11:59:40;5.20;99.90
54516;DHT22;40422;45.892;4.738;2022-12-08T12:02:23;5.30;99.90
54516;DHT22;40422;45.892;4.738;2022-12-08T12:04:57;5.50;99.90
54516;DHT22;40422;45.892;4.738;2022-12-08T12:10:37;5.60;99.90
54516;DHT22;40422;45.892;4.738;2022-12-08T12:13:33;5.60;99.90
54516;DHT22;40422;45.892;4.738;2022-12-08T12:16:32;5.60;99.90
54516;DHT22;40422;45.892;4.738;2022-12-08T12:19:07;5.70;99.90
54516;DHT22;40422;45.892;4.738;2022-12-08T12:21:40;5.80;99.90
54516;DHT22;40422;45.892;4.738;2022-12-08T12:24:17;6.00;99.90
54516;DHT22;40422;45.892;4.738;2022-12-08T12:27:01;6.00;99.90
54516;DHT22;40422;45.892;4.738;2022-12-08T12:29:35;6.10;99.90
54516;DHT22;40422;45.892;4.738;2022-12-08T12:32:03;6.20;99.90
54516;DHT22;40422;45.892;4.738;2022-12-08T12:34:35;6.20;99.90
54516;DHT22;40422;45.892;4.738;2022-12-08T12:37:07;6.30;99.90
54516;DHT22;40422;45.892;4.738;2022-12-08T12:45:28;6.00;99.90
54516;DHT22;40422;45.892;4.738;2022-12-08T12:53:04;5.90;99.90
54516;DHT22;40422;45.892;4.738;2022-12-08T12:55:55;5.90;99.90
54516;DHT22;40422;45.892;4.738;2022-12-08T13:03:40;5.80;99.90
54516;DHT22;40422;45.892;4.738;2022-12-08T13:06:08;5.90;99.90
54516;DHT22;40422;45.892;4.738;2022-12-08T13:08:39;5.90;99.90
54516;DHT22;40422;45.892;4.738;2022-12-08T13:11:10;6.00;99.90
54516;DHT22;40422;45.892;4.738;2022-12-08T13:13:37;6.00;99.90
54516;DHT22;40422;45.892;4.738;2022-12-08T13:18:39;6.00;99.90
54516;DHT22;40422;45.892;4.738;2022-12-08T13:26:15;5.80;99.90
54516;DHT22;40422;45.892;4.738;2022-12-08T13:31:36;5.50;99.90
54516;DHT22;40422;45.892;4.738;2022-12-08T13:42:20;5.60;99.90
54516;DHT22;40422;45.892;4.738;2022-12-08T13:52:53;5.50;99.90
54516;DHT22;40422;45.892;4.738;2022-12-08T13:55:24;5.50;99.90
54516;DHT22;40422;45.892;4.738;2022-12-08T13:57:54;5.50;99.90
54516;DHT22;40422;45.892;4.738;2022-12-08T14:00:22;5.70;99.90
54516;DHT22;40422;45.892;4.738;2022-12-08T14:02:50;5.80;99.90
54516;DHT22;40422;45.892;4.738;2022-12-08T14:05:19;5.90;99.90
54516;DHT22;40422;45.892;4.738;2022-12-08T14:07:48;6.00;99.90
54516;DHT22;40422;45.892;4.738;2022-12-08T14:10:23;6.00;99.90
54516;DHT22;40422;45.892;4.738;2022-12-08T14:12:59;5.90;99.90
54516;DHT22;40422;45.892;4.738;2022-12-08T14:15:26;5.90;99.90
54516;DHT22;40422;45.892;4.738;2022-12-08T14:17:55;5.80;99.90
54516;DHT22;40422;45.892;4.738;2022-12-08T14:20:31;5.70;99.90
54516;DHT22;40422;45.892;4.738;2022-12-08T14:22:57;5.70;99.90
54516;DHT22;40422;45.892;4.738;2022-12-08T14:25:27;5.70;99.90
54516;DHT22;40422;45.892;4.738;2022-12-08T14:27:58;5.80;99.90
54516;DHT22;40422;45.892;4.738;2022-12-08T14:30:30;5.80;99.90
54516;DHT22;40422;45.892;4.738;2022-12-08T14:32:57;5.90;99.90
54516;DHT22;40422;45.892;4.738;2022-12-08T14:35:24;6.10;99.90
54516;DHT22;40422;45.892;4.738;2022-12-08T14:38:00;6.00;99.90
54516;DHT22;40422;45.892;4.738;2022-12-08T14:40:35;6.00;99.90
54516;DHT22;40422;45.892;4.738;2022-12-08T14:51:04;6.50;99.90
54516;DHT22;40422;45.892;4.738;2022-12-08T14:56:13;6.70;99.90
54516;DHT22;40422;45.892;4.738;2022-12-08T14:58:41;6.60;99.90
54516;DHT22;40422;45.892;4.738;2022-12-08T15:01:07;6.60;99.90
54516;DHT22;40422;45.892;4.738;2022-12-08T15:03:36;6.60;99.90
54516;DHT22;40422;45.892;4.738;2022-12-08T15:06:06;6.70;99.90
54516;DHT22;40422;45.892;4.738;2022-12-08T15:08:33;6.70;99.90
54516;DHT22;40422;45.892;4.738;2022-12-08T15:13:48;6.70;99.90
54516;DHT22;40422;45.892;4.738;2022-12-08T15:16:41;6.70;99.90
54516;DHT22;40422;45.892;4.738;2022-12-08T15:19:29;6.60;99.90
54516;DHT22;40422;45.892;4.738;2022-12-08T15:21:57;6.60;99.90
54516;DHT22;40422;45.892;4.738;2022-12-08T15:24:26;6.60;99.90
54516;DHT22;40422;45.892;4.738;2022-12-08T15:26:53;6.60;99.90
54516;DHT22;40422;45.892;4.738;2022-12-08T15:29:23;6.60;99.90
54516;DHT22;40422;45.892;4.738;2022-12-08T15:31:51;6.60;99.90
54516;DHT22;40422;45.892;4.738;2022-12-08T15:34:18;6.50;99.90
54516;DHT22;40422;45.892;4.738;2022-12-08T15:36:45;6.30;99.90
54516;DHT22;40422;45.892;4.738;2022-12-08T15:39:32;6.20;99.90
54516;DHT22;40422;45.892;4.738;2022-12-08T15:42:00;6.00;99.90
54516;DHT22;40422;45.892;4.738;2022-12-08T15:44:26;5.90;99.90
54516;DHT22;40422;45.892;4.738;2022-12-08T15:46:53;5.80;99.90
54516;DHT22;40422;45.892;4.738;2022-12-08T15:49:21;5.70;99.90
54516;DHT22;40422;45.892;4.738;2022-12-08T15:51:47;5.60;99.90
54516;DHT22;40422;45.892;4.738;2022-12-08T15:54:13;5.60;99.90
54516;DHT22;40422;45.892;4.738;2022-12-08T15:56:43;5.50;99.90
54516;DHT22;40422;45.892;4.738;2022-12-08T15:59:16;5.40;99.90
54516;DHT22;40422;45.892;4.738;2022-12-08T16:01:43;5.40;99.90
54516;DHT22;40422;45.892;4.738;2022-12-08T16:04:12;5.30;99.90
54516;DHT22;40422;45.892;4.738;2022-12-08T16:06:39;5.20;99.90
54516;DHT22;40422;45.892;4.738;2022-12-08T16:09:06;5.20;99.90
54516;DHT22;40422;45.892;4.738;2022-12-08T16:11:35;5.10;99.90
54516;DHT22;40422;45.892;4.738;2022-12-08T16:14:19;5.10;99.90
54516;DHT22;40422;45.892;4.738;2022-12-08T16:16:45;5.10;99.90
54516;DHT22;40422;45.892;4.738;2022-12-08T16:19:13;5.00;99.90
54516;DHT22;40422;45.892;4.738;2022-12-08T16:21:39;5.00;99.90
54516;DHT22;40422;45.892;4.738;2022-12-08T16:24:05;5.00;99.90
54516;DHT22;40422;45.892;4.738;2022-12-08T16:26:31;4.90;99.90
54516;DHT22;40422;45.892;4.738;2022-12-08T16:28:56;4.90;99.90
54516;DHT22;40422;45.892;4.738;2022-12-08T16:31:22;4.80;99.90
54516;DHT22;40422;45.892;4.738;2022-12-08T16:33:47;4.70;99.90
54516;DHT22;40422;45.892;4.738;2022-12-08T16:36:13;4.50;99.90
54516;DHT22;40422;45.892;4.738;2022-12-08T16:38:39;4.40;99.90
54516;DHT22;40422;45.892;4.738;2022-12-08T16:41:04;4.40;99.90
54516;DHT22;40422;45.892;4.738;2022-12-08T16:43:48;4.40;99.90
54516;DHT22;40422;45.892;4.738;2022-12-08T16:46:19;4.30;99.90
54516;DHT22;40422;45.892;4.738;2022-12-08T16:48:48;4.30;99.90
54516;DHT22;40422;45.892;4.738;2022-12-08T16:51:16;4.30;99.90
54516;DHT22;40422;45.892;4.738;2022-12-08T16:53:42;4.20;99.90
54516;DHT22;40422;45.892;4.738;2022-12-08T16:56:12;4.30;99.90
54516;DHT22;40422;45.892;4.738;2022-12-08T16:58:38;4.30;99.90
54516;DHT22;40422;45.892;4.738;2022-12-08T17:01:09;4.20;99.90
54516;DHT22;40422;45.892;4.738;2022-12-08T17:03:35;4.20;99.90
54516;DHT22;40422;45.892;4.738;2022-12-08T17:06:01;4.20;99.90
54516;DHT22;40422;45.892;4.738;2022-12-08T17:08:31;4.10;99.90
54516;DHT22;40422;45.892;4.738;2022-12-08T17:10:57;4.10;99.90
54516;DHT22;40422;45.892;4.738;2022-12-08T17:13:35;4.20;99.90
54516;DHT22;40422;45.892;4.738;2022-12-08T17:16:03;4.20;99.90
54516;DHT22;40422;45.892;4.738;2022-12-08T17:18:31;4.20;99.90
54516;DHT22;40422;45.892;4.738;2022-12-08T17:20:57;4.20;99.90
54516;DHT22;40422;45.892;4.738;2022-12-08T17:23:22;4.20;99.90
54516;DHT22;40422;45.892;4.738;2022-12-08T17:25:59;4.20;99.90
54516;DHT22;40422;45.892;4.738;2022-12-08T17:28:25;4.20;99.90
54516;DHT22;40422;45.892;4.738;2022-12-08T17:30:51;4.20;99.90
54516;DHT22;40422;45.892;4.738;2022-12-08T17:33:17;4.20;99.90
54516;DHT22;40422;45.892;4.738;2022-12-08T17:35:47;4.20;99.90
54516;DHT22;40422;45.892;4.738;2022-12-08T17:38:13;4.20;99.90
54516;DHT22;40422;45.892;4.738;2022-12-08T17:40:39;4.20;99.90
54516;DHT22;40422;45.892;4.738;2022-12-08T17:43:05;4.10;99.90
54516;DHT22;40422;45.892;4.738;2022-12-08T17:45:30;4.10;99.90
54516;DHT22;40422;45.892;4.738;2022-12-08T17:47:56;4.10;99.90
54516;DHT22;40422;45.892;4.738;2022-12-08T17:50:21;4.10;99.90
54516;DHT22;40422;45.892;4.738;2022-12-08T17:52:50;4.10;99.90
54516;DHT22;40422;45.892;4.738;2022-12-08T17:55:16;4.10;99.90
54516;DHT22;40422;45.892;4.738;2022-12-08T17:57:41;4.00;99.90
54516;DHT22;40422;45.892;4.738;2022-12-08T18:00:09;4.00;99.90
54516;DHT22;40422;45.892;4.738;2022-12-08T18:02:35;4.00;99.90
54516;DHT22;40422;45.892;4.738;2022-12-08T18:05:02;4.00;99.90
54516;DHT22;40422;45.892;4.738;2022-12-08T18:07:29;4.00;99.90
54516;DHT22;40422;45.892;4.738;2022-12-08T18:09:54;4.00;99.90
54516;DHT22;40422;45.892;4.738;2022-12-08T18:12:20;4.00;99.90
54516;DHT22;40422;45.892;4.738;2022-12-08T18:14:46;4.10;99.90
54516;DHT22;40422;45.892;4.738;2022-12-08T18:17:12;4.00;99.90
54516;DHT22;40422;45.892;4.738;2022-12-08T18:19:38;4.00;99.90
54516;DHT22;40422;45.892;4.738;2022-12-08T18:22:04;4.00;99.90
54516;DHT22;40422;45.892;4.738;2022-12-08T18:24:29;3.90;99.90
54516;DHT22;40422;45.892;4.738;2022-12-08T18:26:55;3.90;99.90
54516;DHT22;40422;45.892;4.738;2022-12-08T18:29:23;3.90;99.90
54516;DHT22;40422;45.892;4.738;2022-12-08T18:31:49;3.90;99.90
54516;DHT22;40422;45.892;4.738;2022-12-08T18:34:15;3.90;99.90
54516;DHT22;40422;45.892;4.738;2022-12-08T18:36:43;3.90;99.90
54516;DHT22;40422;45.892;4.738;2022-12-08T18:39:22;3.90;99.90
54516;DHT22;40422;45.892;4.738;2022-12-08T18:41:48;3.90;99.90
54516;DHT22;40422;45.892;4.738;2022-12-08T18:44:14;3.90;99.90
54516;DHT22;40422;45.892;4.738;2022-12-08T18:46:39;3.90;99.90
54516;DHT22;40422;45.892;4.738;2022-12-08T18:49:09;3.90;99.90
54516;DHT22;40422;45.892;4.738;2022-12-08T18:51:35;3.90;99.90
54516;DHT22;40422;45.892;4.738;2022-12-08T18:54:01;3.90;99.90
54516;DHT22;40422;45.892;4.738;2022-12-08T18:56:29;3.90;99.90
54516;DHT22;40422;45.892;4.738;2022-12-08T18:58:56;3.90;99.90
54516;DHT22;40422;45.892;4.738;2022-12-08T19:01:23;3.90;99.90
54516;DHT22;40422;45.892;4.738;2022-12-08T19:03:48;3.90;99.90
54516;DHT22;40422;45.892;4.738;2022-12-08T19:06:14;3.90;99.90
54516;DHT22;40422;45.892;4.738;2022-12-08T19:08:40;3.90;99.90
54516;DHT22;40422;45.892;4.738;2022-12-08T19:11:15;3.80;99.90
54516;DHT22;40422;45.892;4.738;2022-12-08T19:13:41;3.80;99.90
54516;DHT22;40422;45.892;4.738;2022-12-08T19:16:06;3.80;99.90
54516;DHT22;40422;45.892;4.738;2022-12-08T19:18:32;3.70;99.90
54516;DHT22;40422;45.892;4.738;2022-12-08T19:20:57;3.80;99.90
54516;DHT22;40422;45.892;4.738;2022-12-08T19:23:24;3.70;99.90
54516;DHT22;40422;45.892;4.738;2022-12-08T19:25:49;3.70;99.90
54516;DHT22;40422;45.892;4.738;2022-12-08T19:28:15;3.80;99.90
54516;DHT22;40422;45.892;4.738;2022-12-08T19:30:44;3.70;99.90
54516;DHT22;40422;45.892;4.738;2022-12-08T19:33:10;3.70;99.90
54516;DHT22;40422;45.892;4.738;2022-12-08T19:35:36;3.70;99.90
54516;DHT22;40422;45.892;4.738;2022-12-08T19:38:01;3.70;99.90
54516;DHT22;40422;45.892;4.738;2022-12-08T19:40:27;3.70;99.90
54516;DHT22;40422;45.892;4.738;2022-12-08T19:43:16;3.70;99.90
54516;DHT22;40422;45.892;4.738;2022-12-08T19:46:01;3.70;99.90
54516;DHT22;40422;45.892;4.738;2022-12-08T19:48:27;3.60;99.90
54516;DHT22;40422;45.892;4.738;2022-12-08T19:50:52;3.70;99.90
54516;DHT22;40422;45.892;4.738;2022-12-08T19:53:18;3.70;99.90
54516;DHT22;40422;45.892;4.738;2022-12-08T19:55:46;3.80;99.90
54516;DHT22;40422;45.892;4.738;2022-12-08T19:58:12;3.70;99.90
54516;DHT22;40422;45.892;4.738;2022-12-08T20:00:39;3.80;99.90
54516;DHT22;40422;45.892;4.738;2022-12-08T20:03:05;3.70;99.90
54516;DHT22;40422;45.892;4.738;2022-12-08T20:05:32;3.70;99.90
54516;DHT22;40422;45.892;4.738;2022-12-08T20:07:59;3.60;99.90
54516;DHT22;40422;45.892;4.738;2022-12-08T20:10:31;3.70;99.90
54516;DHT22;40422;45.892;4.738;2022-12-08T20:12:58;3.70;99.90
54516;DHT22;40422;45.892;4.738;2022-12-08T20:15:43;3.70;99.90
54516;DHT22;40422;45.892;4.738;2022-12-08T20:18:11;3.70;99.90
54516;DHT22;40422;45.892;4.738;2022-12-08T20:20:38;3.70;99.90
54516;DHT22;40422;45.892;4.738;2022-12-08T20:23:04;3.80;99.90
54516;DHT22;40422;45.892;4.738;2022-12-08T20:25:29;3.70;99.90
54516;DHT22;40422;45.892;4.738;2022-12-08T20:27:55;3.60;99.90
54516;DHT22;40422;45.892;4.738;2022-12-08T20:30:20;3.60;99.90
54516;DHT22;40422;45.892;4.738;2022-12-08T20:32:46;3.60;99.90
54516;DHT22;40422;45.892;4.738;2022-12-08T20:35:13;3.60;99.90
54516;DHT22;40422;45.892;4.738;2022-12-08T20:37:38;3.50;99.90
54516;DHT22;40422;45.892;4.738;2022-12-08T20:40:04;3.50;99.90
54516;DHT22;40422;45.892;4.738;2022-12-08T20:42:30;3.50;99.90
54516;DHT22;40422;45.892;4.738;2022-12-08T20:44:56;3.50;99.90
54516;DHT22;40422;45.892;4.738;2022-12-08T20:47:21;3.50;99.90
54516;DHT22;40422;45.892;4.738;2022-12-08T20:49:47;3.50;99.90
54516;DHT22;40422;45.892;4.738;2022-12-08T20:52:13;3.50;99.90
54516;DHT22;40422;45.892;4.738;2022-12-08T20:54:38;3.60;99.90
54516;DHT22;40422;45.892;4.738;2022-12-08T20:57:04;3.50;99.90
54516;DHT22;40422;45.892;4.738;2022-12-08T20:59:30;3.60;99.90
